Meteo Giornale » Osservazioni meteo Stati Uniti (USA) » Jackson Co-Reynolds Fld
ore: 13:56 - Osservazioni Meteo Jackson Co-Reynolds Fld
Lat. 42° 15' N Lon. 84° 27' W Alt. 305 metri s.l.m.
31 °C
Sereno
Temp. 24 Ore
20 °C
31 °C
Sud-Ovest
16.7 Km/h
Dew point 24 °C
Umidità 66 %
Visibilità 10 Km
Il sole sorge alle ore 07:03
Il sole tramonta alle ore 20:12
| Data e Ora | Cielo e Fenomeni | T °C | DP °C | Um. % | Pres. hPa | Vis. km | Vento km/h | |
|---|---|---|---|---|---|---|---|---|
| Oggi h: 13:56 | Sereno | 31 | 24 | 66 | 1015 | 10 | SO 16.7 | |
| Oggi h: 12:56 | Sereno | 29 | 24 | 74 | 1015 | 10 | S 9.3 | |
| Oggi h: 11:56 | Sereno | 28 | 23 | 74 | 1016 | 10 | S/SO 11.1 | |
| Oggi h: 10:56 | Sereno | 27 | 22 | 74 | 1016 | 10 | SO 7.4 | |
| Oggi h: 09:56 | Sereno | 25 | 21 | 78 | 1016 | 10 | SO 9.3 | |
| Oggi h: 08:56 | Sereno | 23 | 21 | 88 | 1016 | 10 | SO 11.1 | |
| Oggi h: 07:56 | Sereno | 22 | 20 | 88 | 1016 | 10 | N 5.5 | |
| Oggi h: 06:56 | Sereno | 20 | 19 | 93 | 1015 | 10 | N 5.5 | |
| Oggi h: 05:56 | Sereno | 21 | 20 | 94 | 1015 | 10 | N 0 | |
| Oggi h: 04:56 | Foschia | 20 | 20 | 100 | 1015 | 10 | N 0 | |
| Oggi h: 03:56 | Sereno | 20 | 20 | 100 | 1015 | 11 | N 5.5 | |
| Oggi h: 02:56 | Sereno | 22 | 21 | 94 | 1015 | 10 | N 0 | |
| Oggi h: 01:56 | Sereno | 23 | 21 | 88 | 1015 | 10 | S/SO 11.1 | |
| Oggi h: 00:56 | Sereno | 23 | 21 | 88 | 1015 | 10 | S/SO 9.3 | |
| Ieri h: 23:56 | Sereno | 23 | 22 | 94 | 1015 | 10 | SO 7.4 | |
| Ieri h: 22:56 | Sereno | 23 | 22 | 94 | 1015 | 10 | S/SO 7.4 | |
| Ieri h: 21:56 | Sereno | 23 | 21 | 88 | 1015 | 10 | S/SO 11.1 | |
| Ieri h: 20:56 | Sereno | 23 | 21 | 88 | 1015 | 10 | S 13 | |
| Ieri h: 19:56 | Sereno | 23 | 21 | 88 | 1014 | 10 | S/SE 11.1 | |
| Ieri h: 18:56 | Poco Nuvoloso | 23 | 21 | 88 | 1015 | 10 | SE 9.3 | |
| Ieri h: 17:56 | Pioggia Foschia | 22 | 20 | 88 | 1015 | 6 | S/SE 16.7 | |
| Ieri h: 17:32 | Pioggia | 22 | 19 | 83 | 1015 | 6 | S/SE 18.5 | |
| Ieri h: 17:01 | Pioggia Foschia | 23 | 21 | 88 | 1017 | 6 | N 0 | |
| Ieri h: 16:56 | Temporale nelle vicinanze Pioggia | 23 | 21 | 88 | 1017 | 5 | N 0 | |
| Ieri h: 16:21 | Coperto | 26 | 20 | 69 | 1017 | 10 | N 5.5 | |
| Ieri h: 16:06 | Temporale | 27 | 19 | 61 | 1017 | 10 | N 5.5 | |
| Ieri h: 15:56 | Temporale nelle vicinanze | 26 | 19 | 65 | 1016 | 10 | O/SO 7.4 | |
| Ieri h: 14:56 | Sereno | 28 | 19 | 58 | 1016 | 10 | S/SO 24 | |



